METAR Reports for Virginia

 

KIAD - Wash DC/Dulles, Virginia, USA
Distance from station: NNW 8mi, 13km
Updated: Sat, 18-Nov-2017 5:52pm EST
Overcast
Overcast
 Wind from SSE
Wind: SSE 8 mph , 13 km/h
Temperature: 57°F , 14°C
Dew Point: 41°F , 5°C
Humidity: 55%
Barometer: 29.56 inHg , 1001 hPa
Clouds: Overcast
Visibility: 10 miles , 16 km
Cloud details: Mostly cloudy 8500 ft
Overcast 12000 ft
2017/11/18 22:52 KIAD 182252Z 15007KT 10SM BKN085 OVC120 14/05 A2956 RMK AO2 SLP011 T01390050 $
KHEF - Manassas Muni, Virginia, USA
Distance from station: SW 9mi, 14km
Updated: Sat, 18-Nov-2017 5:56pm EST
Clear
Clear
 Wind from S
Wind: S 9 mph , 15 km/h
Temperature: 59°F , 15°C
Dew Point: 43°F , 6°C
Humidity: 55%
Barometer: 29.58 inHg , 1001.7 hPa
Clouds: Clear
Visibility: 10 miles , 16 km
2017/11/18 22:56 KHEF 182256Z 18008KT 10SM CLR 15/06 A2958 RMK AO2 SLP027 T01500056 PNO $
KDAA - Fort Belvoir/Dav, Virginia, USA
Distance from station: ESE 15mi, 25km
Updated: Sat, 18-Nov-2017 5:56pm EST
Clear
Clear
 Wind from SE
Wind: SE 7 mph , 11 km/h
Temperature: 55°F , 13°C
Dew Point: 41°F , 5°C
Humidity: 59%
Barometer: 29.59 inHg , 1002 hPa
Clouds: Clear
Visibility: 10 miles , 16 km
2017/11/18 22:56 KDAA 182256Z AUTO 14006KT 10SM CLR 13/05 A2959 RMK AO2 SLP024 T01330050 $
 
KJYO - Leesburg/Godfrey, Virginia, USA
Distance from station: NNW 19mi, 30km
Updated: Sat, 18-Nov-2017 6:15pm EST
Partly cloudy
Partly cloudy
 Wind from S
Wind: S 12 mph , 19 km/h
Temperature: 55°F , 13°C
Dew Point: 45°F , 7°C
Humidity: 67%
Barometer: 29.53 inHg , 1000 hPa
Clouds: Partly cloudy
Visibility: 10 miles , 16 km
Cloud details: Partly cloudy 12000 ft
2017/11/18 23:15 KJYO 182315Z AUTO 17010KT 10SM SCT120 13/07 A2953 RMK AO2
KDCA - Washington/Natl, Washington D.C./Arlington, VA, USA
Distance from station: E 21mi, 34km
Updated: Sat, 18-Nov-2017 5:52pm EST
Overcast
Overcast
 Wind from S
Wind: S 12 mph , 19 km/h
Temperature: 55°F , 13°C
Dew Point: 43°F , 6°C
Humidity: 63%
Barometer: 29.59 inHg , 1002 hPa
Clouds: Overcast
Visibility: 10 miles , 16 km
Cloud details: Overcast 14000 ft
2017/11/18 22:52 KDCA 182252Z 19010KT 10SM OVC140 13/06 A2959 RMK AO2 SLP021 T01280061
KHWY - Warrenton, Virginia, USA
Distance from station: SW 23mi, 37km
Updated: Thu, 09-Nov-2017 1:55pm EST
NOT Current
Haze, Overcast
Haze, Overcast
 Wind from calm
Wind: Calm
Temperature: 52°F , 11°C
Dew Point: 45°F , 7°C
Humidity: 77%
Barometer: 30.06 inHg , 1017.9 hPa
Summary: Haze
Clouds: Overcast
Visibility: 5 miles , 8 km
Cloud details: Overcast 800 ft
2017/11/09 18:55 KHWY 091855Z AUTO 00000KT 5SM HZ OVC008 11/07 A3006 RMK AO2 T01060073
 
KNYG - Quantico Mcaf, Virginia, USA
Distance from station: SSE 23mi, 37km
Updated: Fri, 17-Nov-2017 8:56pm EST
NOT Current
Clear
Clear
 Wind from WNW
Wind: WNW 7 mph , 11 km/h
Temperature: 37°F , 3°C
Wind Chill: 32°F , 0°C
Dew Point: 34°F , 1°C
Humidity: 87%
Barometer: 30.14 inHg , 1020.7 hPa
Clouds: Clear
2017/11/18 01:56 KNYG 180156Z AUTO 30006KT CLR 03/01 A3014 RMK AO2 SLP207 T00330011 $
KRMN - Stafford Regnl, Virginia, USA
Distance from station: S 29mi, 47km
Updated: Sat, 18-Nov-2017 6:15pm EST
Clear
Clear
 Wind from S
Wind: S 9 mph , 15 km/h
Temperature: 59°F , 15°C
Dew Point: 43°F , 6°C
Humidity: 55%
Barometer: 29.63 inHg , 1003.4 hPa
Clouds: Clear
Visibility: 10 miles , 16 km
2017/11/18 23:15 KRMN 182315Z AUTO 17008KT 10SM CLR 15/06 A2963 RMK AO2 T01500056
KBCB - Blacksburg, Virginia, USA
Distance from station: SW 191mi, 317km
Updated: Sat, 18-Nov-2017 6:15pm EST
Clear
Clear
 Wind from S
Wind: S 12 mph , 19 km/h, Gust: 21 mph , 33 km/h
Temperature: 55°F , 13°C
Dew Point: 46°F , 8°C
Humidity: 72%
Barometer: 29.66 inHg , 1004.4 hPa
Clouds: Clear
Visibility: 10 miles , 16 km
2017/11/18 23:15 KBCB 182315Z AUTO 19010G18KT 160V230 10SM CLR 13/08 A2966 RMK AO2 T01300078
 
KCJR - Culpeper, Virginia, USA
Distance from station: SW 31mi, 50km
Updated: Sat, 18-Nov-2017 6:15pm EST
Clear
Clear
 Wind from S
Wind: S 9 mph , 15 km/h, Gust: 18 mph , 30 km/h
Temperature: 63°F , 17°C
Dew Point: 41°F , 5°C
Humidity: 45%
Barometer: 29.57 inHg , 1001.4 hPa
Clouds: Clear
Visibility: 10 miles , 16 km
2017/11/18 23:15 KCJR 182315Z AUTO 19008G16KT 10SM CLR 17/05 A2957 RMK AO2 T01710052
KEZF - Fredericksb/Shan, Virginia, USA
Distance from station: S 38mi, 61km
Updated: Sat, 18-Nov-2017 6:15pm EST
Clear
Clear
 Wind from S
Wind: S 13 mph , 20 km/h, Gust: 17 mph , 28 km/h
Temperature: 61°F , 16°C
Dew Point: 46°F , 8°C
Humidity: 59%
Barometer: 29.59 inHg , 1002 hPa
Clouds: Clear
Visibility: 10 miles , 16 km
2017/11/18 23:15 KEZF 182315Z AUTO 18011G15KT 10SM CLR 16/08 A2959 RMK AO2 T01630077
KCHO - Charlottesville, Virginia, USA
Distance from station: SW 73mi, 118km
Updated: Sat, 18-Nov-2017 5:53pm EST
Overcast
Overcast
 Wind from SSW
Wind: SSW 21 mph , 33 km/h, Gust: 28 mph , 44 km/h
Temperature: 63°F , 17°C
Dew Point: 45°F , 7°C
Humidity: 52%
Barometer: 29.57 inHg , 1001.4 hPa
Clouds: Overcast
Visibility: 10 miles , 16 km
Cloud details: Overcast 12000 ft
2017/11/18 22:53 KCHO 182253Z 20018G24KT 10SM OVC120 17/07 A2957 RMK AO2 PK WND 21027/2159 SLP012 T01670067
 
KOKV - Winchester Rgnl, Virginia, USA
Distance from station: WNW 45mi, 72km
Updated: Sat, 18-Nov-2017 6:15pm EST
Clear
Clear
 Wind from calm
Wind: Calm
Temperature: 41°F , 5°C
Dew Point: 37°F , 3°C
Humidity: 87%
Barometer: 29.50 inHg , 999 hPa
Clouds: Clear
Visibility: 10 miles , 16 km
2017/11/18 23:15 KOKV 182315Z AUTO 00000KT 10SM CLR 05/03 A2950 RMK AO2
KSHD - Staunton/Shenand, Virginia, USA
Distance from station: WSW 89mi, 143km
Updated: Sat, 18-Nov-2017 6:15pm EST
Clear
Clear
 Wind from S
Wind: S 8 mph , 13 km/h
Temperature: 57°F , 14°C
Dew Point: 43°F , 6°C
Humidity: 59%
Barometer: 29.57 inHg , 1001.4 hPa
Clouds: Clear
Visibility: 10 miles , 16 km
2017/11/18 23:15 KSHD 182315Z AUTO 19007KT 10SM CLR 14/06 A2957 RMK AO2 T01350061
KRIC - Richmond, Virginia, USA
Distance from station: S 90mi, 145km
Updated: Sat, 18-Nov-2017 5:54pm EST
Overcast
Overcast
 Wind from S
Wind: S 20 mph , 31 km/h
Temperature: 72°F , 22°C
Dew Point: 46°F , 8°C
Humidity: 41%
Barometer: 29.66 inHg , 1004.4 hPa
Clouds: Overcast
Visibility: 10 miles , 16 km
Cloud details: Few Clouds 17000 ft
Mostly cloudy 25000 ft
Overcast 30000 ft
2017/11/18 22:54 KRIC 182254Z 19017KT 10SM FEW170 BKN250 OVC300 22/08 A2966 RMK AO2 SLP048 T02170083
 
KOMH - Orange, Virginia, USA
Distance from station: SW 52mi, 84km
Updated: Sat, 18-Nov-2017 6:20pm EST
Clear
Clear
 Wind from SSW
Wind: SSW 16 mph , 26 km/h, Gust: 24 mph , 39 km/h
Temperature: 61°F , 16°C
Dew Point: 43°F , 6°C
Humidity: 52%
Barometer: 29.57 inHg , 1001.4 hPa
Clouds: Clear
Visibility: 10 miles , 16 km
2017/11/18 23:20 KOMH 182320Z AUTO 20014G21KT 10SM CLR 16/06 A2957 RMK AO2
KPHF - Newport News, Virginia, USA
Distance from station: SSE 127mi, 204km
Updated: Sat, 18-Nov-2017 5:54pm EST
Clear
Clear
 Wind from SSW
Wind: SSW 14 mph , 22 km/h
Temperature: 61°F , 16°C
Dew Point: 48°F , 9°C
Humidity: 63%
Barometer: 29.72 inHg , 1006.4 hPa
Clouds: Clear
Visibility: 10 miles , 16 km
2017/11/18 22:54 KPHF 182254Z 21012KT 10SM CLR 16/09 A2972 RMK AO2 SLP063 T01610094
KLYH - Lynchburg, Virginia, USA
Distance from station: SW 142mi, 228km
Updated: Sat, 18-Nov-2017 5:54pm EST
Clear
Clear
 Wind from SSW
Wind: SSW 14 mph , 22 km/h, Gust: 25 mph , 41 km/h
Temperature: 59°F , 15°C
Dew Point: 45°F , 7°C
Humidity: 59%
Barometer: 29.65 inHg , 1004.1 hPa
Clouds: Clear
Visibility: 10 miles , 16 km
2017/11/18 22:54 KLYH 182254Z 21012G22KT 10SM CLR 15/07 A2965 RMK AO2 SLP041 T01500072
 
KLUA - Luray, Virginia, USA
Distance from station: W 59mi, 95km
Updated: Sat, 18-Nov-2017 6:15pm EST
Clear
Clear
 Wind from SSW
Wind: SSW 13 mph , 20 km/h
Temperature: 59°F , 15°C
Dew Point: 43°F , 6°C
Humidity: 55%
Barometer: 29.52 inHg , 999.7 hPa
Clouds: Clear
Visibility: 10 miles , 16 km
2017/11/18 23:15 KLUA 182315Z AUTO 21011KT 10SM CLR 15/06 A2952 RMK AO2
KLKU - Louisa, Virginia, USA
Distance from station: SSW 63mi, 101km
Updated: Sat, 18-Nov-2017 6:15pm EST

 Wind from S
Wind: S 9 mph , 15 km/h, Gust: 21 mph , 33 km/h
Temperature: 61°F , 16°C
Dew Point: 43°F , 6°C
Humidity: 52%
Visibility: 10 miles , 16 km
2017/11/18 23:15 KLKU 182315Z AUTO 19008G18KT 160V230 10SM 16/06 RMK AO2 T01610065
KXSA - Tappahannock, Virginia, USA
Distance from station: SSE 72mi, 115km
Updated: Sat, 18-Nov-2017 6:15pm EST

 
2017/11/18 23:15 KXSA 182315Z AUTO RMK AO2 PWINO TSNO
 
KOFP - Richmond/Hanover, Virginia, USA
Distance from station: S 77mi, 124km
Updated: Sat, 18-Nov-2017 5:54pm EST
Clear
Clear
 Wind from S
Wind: S 13 mph , 20 km/h
Temperature: 61°F , 16°C
Dew Point: 46°F , 8°C
Humidity: 59%
Barometer: 29.66 inHg , 1004.4 hPa
Clouds: Clear
Visibility: 10 miles , 16 km
2017/11/18 22:54 KOFP 182254Z AUTO 17011KT 10SM CLR 16/08 A2966 RMK AO2 SLP042 T01610078
KVBW - BRIDGEWATER, VIRGINIA, USA
Distance from station: SW 89mi, 144km
Updated: Sat, 18-Nov-2017 6:15pm EST
Clear
Clear
 Wind from S
Wind: S 16 mph , 26 km/h, Gust: 20 mph , 31 km/h
Temperature: 57°F , 14°C
Dew Point: 43°F , 6°C
Humidity: 59%
Clouds: Clear
Visibility: 10 miles , 16 km
2017/11/18 23:15 KVBW 182315Z AUTO 19014G17KT 10SM CLR 14/06 RMK AO2 T01410064
KFYJ - West Point, Virginia, USA
Distance from station: SSE 97mi, 156km
Updated: Sat, 18-Nov-2017 6:15pm EST
Clear
Clear
 Wind from S
Wind: S 12 mph , 19 km/h, Gust: 18 mph , 30 km/h
Temperature: 63°F , 17°C
Dew Point: 48°F , 9°C
Humidity: 59%
Barometer: 29.68 inHg , 1005.1 hPa
Clouds: Clear
Visibility: 10 miles , 16 km
2017/11/18 23:15 KFYJ 182315Z AUTO 19010G16KT 10SM CLR 17/09 A2968 RMK AO2 T01650089
 
KFCI - Richmond/Chester, Virginia, USA
Distance from station: S 98mi, 158km
Updated: Sun, 15-Oct-2017 11:56pm EDT
NOT Current
Clear
Clear
 Wind from SSW
Wind: SSW 7 mph , 11 km/h
Temperature: 72°F , 22°C
Dew Point: 66°F , 19°C
Humidity: 83%
Barometer: 29.93 inHg , 1013.5 hPa
Clouds: Clear
Visibility: 10 miles , 16 km
2017/10/16 03:56 KFCI 160356Z AUTO 20006KT 10SM CLR 22/19 A2993 RMK AO2 SLP150 T02170189 402720178
KTGI - TANGIER ISLAND, VIRGINIA USA
Distance from station: 104mi, 168km
Updated: Sat, 18-Nov-2017 6:16pm EST
Clear
Clear
 Wind from S
Wind: S 17 mph , 28 km/h, Gust: 24 mph , 39 km/h
Temperature: 59°F , 15°C
Dew Point: 54°F , 12°C
Humidity: 82%
Barometer: 29.67 inHg , 1004.7 hPa
Clouds: Clear
Visibility: 10 miles , 16 km
2017/11/18 23:16 KTGI 182316Z AUTO 18015G21KT 10SM CLR 15/12 A2967 RMK AO1
KPTB - Petersburg, Virginia, USA
Distance from station: S 114mi, 184km
Updated: Sat, 18-Nov-2017 6:15pm EST
Clear
Clear
 Wind from SSW
Wind: SSW 8 mph , 13 km/h
Temperature: 61°F , 16°C
Dew Point: 27°F , -3°C
Humidity: 27%
Barometer: 29.69 inHg , 1005.4 hPa
Clouds: Clear
Visibility: 10 miles , 16 km
2017/11/18 23:15 KPTB 182315Z AUTO 20007KT 10SM CLR 16/M03 A2969 RMK AO2 T01611029
 
KFVX - Farmville, Virginia, USA
Distance from station: SSW 115mi, 185km
Updated: Sat, 18-Nov-2017 6:15pm EST
Clear
Clear
 Wind from SSW
Wind: SSW 13 mph , 20 km/h, Gust: 18 mph , 30 km/h
Temperature: 63°F , 17°C
Dew Point: 50°F , 10°C
Humidity: 64%
Barometer: 29.63 inHg , 1003.4 hPa
Clouds: Clear
Visibility: 10 miles , 16 km
2017/11/18 23:15 KFVX 182315Z AUTO 20011G16KT 10SM CLR 17/10 A2963 RMK AO2 T01700095
KJGG - Williamsburg, Virginia, USA
Distance from station: SSE 116mi, 187km
Updated: Sat, 18-Nov-2017 6:15pm EST
Clear
Clear
 Wind from S
Wind: S 10 mph , 17 km/h, Gust: 16 mph , 26 km/h
Temperature: 63°F , 17°C
Dew Point: 52°F , 11°C
Humidity: 68%
Barometer: 29.71 inHg , 1006.1 hPa
Clouds: Clear
Visibility: 10 miles , 16 km
2017/11/18 23:15 KJGG 182315Z AUTO 19009G14KT 10SM CLR 17/11 A2971 RMK AO1
KMFV - Melfa/Accomack, Virginia, USA
Distance from station: SE 121mi, 195km
Updated: Sat, 18-Nov-2017 6:10pm EST
Clear
Clear
 Wind from S
Wind: S 15 mph , 24 km/h, Gust: 23 mph , 37 km/h
Temperature: 61°F , 16°C
Dew Point: 52°F , 11°C
Humidity: 72%
Barometer: 29.70 inHg , 1005.8 hPa
Clouds: Clear
Visibility: 10 miles , 16 km
2017/11/18 23:10 KMFV 182310Z AUTO 19013G20KT 10SM CLR 16/11 A2970 RMK AO2 T01550106
 
KWAL - Wallops Island, Virginia, USA
Distance from station: ESE 122mi, 197km
Updated: Sat, 18-Nov-2017 5:54pm EST
Clear
Clear
 Wind from S
Wind: S 20 mph , 31 km/h, Gust: 28 mph , 44 km/h
Temperature: 57°F , 14°C
Dew Point: 52°F , 11°C
Humidity: 82%
Barometer: 29.70 inHg , 1005.8 hPa
Clouds: Clear
Visibility: 10 miles , 16 km
2017/11/18 22:54 KWAL 182254Z AUTO 19017G24KT 10SM CLR 14/11 A2970 RMK AO2 SLP055 T01440111
KBKT - BLACKSTONE/FORT, VIRGINIA, USA
Distance from station: SSW 124mi, 200km
Updated: Sun, 12-Nov-2017 2:20am EST
NOT Current
Clear
Clear
 Wind from calm
Wind: Calm
Barometer: 30.47 inHg , 1031.8 hPa
Clouds: Clear
Visibility: 10 miles , 16 km
2017/11/12 07:20 KBKT 120720Z AUTO 00000KT 10SM CLR A3047 RMK AO1
KFAF - Ft Eustis/Felker, Virginia, USA
Distance from station: SSE 125mi, 202km
Updated: Sat, 18-Nov-2017 5:58pm EST
Mostly cloudy
Mostly cloudy
 Wind from S
Wind: S 6 mph , 9 km/h
Temperature: 61°F , 16°C
Dew Point: 50°F , 10°C
Humidity: 68%
Barometer: 29.69 inHg , 1005.4 hPa
Clouds: Mostly cloudy
Visibility: 10 miles , 16 km
Cloud details: Mostly cloudy 17000 ft
2017/11/18 22:58 KFAF 182258Z AUTO 18005KT 10SM BKN170 16/10 A2969 RMK AO2 SLP057 T01580102 $
 
KAKQ - Norfolk/Wakefld, Virginia, USA
Distance from station: S 129mi, 207km
Updated: Sat, 18-Nov-2017 5:54pm EST
Clear
Clear
 Wind from SSW
Wind: SSW 7 mph , 11 km/h
Temperature: 63°F , 17°C
Dew Point: 52°F , 11°C
Humidity: 68%
Barometer: 29.72 inHg , 1006.4 hPa
Clouds: Clear
Visibility: 10 miles , 16 km
2017/11/18 22:54 KAKQ 182254Z AUTO 21006KT 10SM CLR 17/11 A2972 RMK AO2 SLP064 T01720106
KLFI - Langley Afb/Hamp, Virginia, USA
Distance from station: SSE 134mi, 216km
Updated: Sat, 18-Nov-2017 5:56pm EST
Partly cloudy
Partly cloudy
 Wind from SSW
Wind: SSW 14 mph , 22 km/h
Temperature: 63°F , 17°C
Dew Point: 50°F , 10°C
Humidity: 64%
Barometer: 29.72 inHg , 1006.4 hPa
Clouds: Partly cloudy
Visibility: 10 miles , 16 km
Cloud details: Partly cloudy 17000 ft
2017/11/18 22:56 KLFI 182256Z AUTO 20012KT 10SM SCT170 17/10 A2972 RMK AO2 SLP071 T01670101
KLVL - LAWRENCEVILLE, VIRGINIA, USA
Distance from station: SSW 142mi, 229km
Updated: Sat, 18-Nov-2017 6:15pm EST
Clear
Clear
 Wind from S
Wind: S 7 mph , 11 km/h
Temperature: 61°F , 16°C
Dew Point: 50°F , 10°C
Humidity: 68%
Barometer: 29.71 inHg , 1006.1 hPa
Clouds: Clear
Visibility: 10 miles , 16 km
2017/11/18 23:15 KLVL 182315Z AUTO 19006KT 10SM CLR 16/10 A2971 RMK AO1 T01560099
 
KHSP - Hot Springs/Inga, Virginia, USA
Distance from station: WSW 143mi, 230km
Updated: Sat, 18-Nov-2017 6:15pm EST
Overcast
Overcast
 Wind from SSW
Wind: SSW 13 mph , 20 km/h, Gust: 20 mph , 31 km/h
Temperature: 52°F , 11°C
Dew Point: 39°F , 4°C
Humidity: 62%
Barometer: 29.60 inHg , 1002.4 hPa
Clouds: Overcast
Visibility: 10 miles , 16 km
Cloud details: Partly cloudy 3400 ft
Overcast 5000 ft
2017/11/18 23:15 KHSP 182315Z AUTO 20011G17KT 10SM SCT034 OVC050 11/04 A2960 RMK AO2 T01070040
KNGU - Norfolk Nas/Cham, Virginia, USA
Distance from station: SSE 146mi, 234km
Updated: Sat, 18-Nov-2017 5:59pm EST
Overcast
Overcast
 Wind from SSW
Wind: SSW 14 mph , 22 km/h, Gust: 20 mph , 31 km/h
Temperature: 63°F , 17°C
Dew Point: 50°F , 10°C
Humidity: 64%
Barometer: 29.74 inHg , 1007.1 hPa
Clouds: Overcast
Visibility: 10 miles , 16 km
Cloud details: Mostly cloudy 18000 ft
Overcast 25000 ft
2017/11/18 22:59 KNGU 182259Z 20012G17KT 10SM BKN180 OVC250 17/10 A2974 RMK AO2 SLP070 T01720100 $
KEMV - Emporia, Virginia, USA
Distance from station: S 148mi, 237km
Updated: Sat, 18-Nov-2017 6:15pm EST
Clear
Clear
 Wind from SSE
Wind: SSE 7 mph , 11 km/h
Temperature: 61°F , 16°C
Dew Point: 50°F , 10°C
Humidity: 68%
Barometer: 29.74 inHg , 1007.1 hPa
Clouds: Clear
Visibility: 10 miles , 16 km
2017/11/18 23:15 KEMV 182315Z AUTO 16006KT 10SM CLR 16/10 A2974 RMK AO2
 
KORF - Norfolk, Virginia, USA
Distance from station: SSE 148mi, 239km
Updated: Sat, 18-Nov-2017 5:51pm EST
Clear
Clear
 Wind from S
Wind: S 13 mph , 20 km/h
Temperature: 63°F , 17°C
Dew Point: 52°F , 11°C
Humidity: 68%
Barometer: 29.73 inHg , 1006.8 hPa
Clouds: Clear
Visibility: 10 miles , 16 km
2017/11/18 22:51 KORF 182251Z 19011KT 10SM CLR 17/11 A2973 RMK AO2 SLP066 T01670106
KFKN - Franklin/J B Ros, Virginia, USA
Distance from station: SSE 149mi, 240km
Updated: Sat, 18-Nov-2017 6:15pm EST
Clear
Clear
 Wind from S
Wind: S 8 mph , 13 km/h
Temperature: 63°F , 17°C
Dew Point: 50°F , 10°C
Humidity: 64%
Barometer: 29.74 inHg , 1007.1 hPa
Clouds: Clear
Visibility: 10 miles , 16 km
2017/11/18 23:15 KFKN 182315Z AUTO 19007KT 10SM CLR 17/10 A2974 RMK AO2 T01650102
KPVG - Norfolk/Hampton, Virginia, USA
Distance from station: SSE 150mi, 242km
Updated: Sun, 15-Oct-2017 6:56pm EDT
NOT Current
Clear
Clear
 Wind from S
Wind: S 7 mph , 11 km/h
Temperature: 73°F , 23°C
Dew Point: 66°F , 19°C
Humidity: 78%
Barometer: 29.98 inHg , 1015.2 hPa
Clouds: Clear
Visibility: 10 miles , 16 km
2017/10/15 22:56 KPVG 152256Z AUTO 19006KT 10SM CLR 23/19 A2998 RMK AO2 SLP154 T02330189
 
KAVC - South Hill/Meckl, Virginia, USA
Distance from station: SSW 151mi, 243km
Updated: Sat, 18-Nov-2017 6:15pm EST
Clear
Clear
 Wind from S
Wind: S 13 mph , 20 km/h, Gust: 17 mph , 28 km/h
Temperature: 61°F , 16°C
Dew Point: 52°F , 11°C
Humidity: 72%
Barometer: 29.77 inHg , 1008.1 hPa
Clouds: Clear
Visibility: 10 miles , 16 km
2017/11/18 23:15 KAVC 182315Z AUTO 19011G15KT 10SM CLR 16/11 A2977 RMK AO2 T01570108
KCXE - CHASE CITY, VIRGINIA, USA
Distance from station: SW 152mi, 245km
Updated: Sat, 18-Nov-2017 6:15pm EST
Clear
Clear
 Wind from S
Wind: S 3 mph , 6 km/h
Temperature: 61°F , 16°C
Dew Point: 48°F , 9°C
Humidity: 63%
Barometer: 29.69 inHg , 1005.4 hPa
Clouds: Clear
Visibility: 10 miles , 16 km
2017/11/18 23:15 KCXE 182315Z AUTO 17003KT 10SM CLR 16/09 A2969 RMK AO1 T01640090
KSFQ - Suffolk, Virginia, USA
Distance from station: SSE 154mi, 248km
Updated: Sat, 18-Nov-2017 6:15pm EST
Clear
Clear
 Wind from S
Wind: S 15 mph , 24 km/h, Gust: 18 mph , 30 km/h
Temperature: 63°F , 17°C
Dew Point: 52°F , 11°C
Humidity: 68%
Barometer: 29.75 inHg , 1007.5 hPa
Clouds: Clear
Visibility: 10 miles , 16 km
2017/11/18 23:15 KSFQ 182315Z AUTO 19013G16KT 10SM CLR 17/11 A2975 RMK AO2 T01690114
 
KNTU - Oceana Nas/Souce, Virginia, USA
Distance from station: SSE 158mi, 254km
Updated: Sat, 18-Nov-2017 5:56pm EST
Overcast
Overcast
 Wind from SSW
Wind: SSW 14 mph , 22 km/h
Temperature: 61°F , 16°C
Dew Point: 48°F , 9°C
Humidity: 63%
Barometer: 29.74 inHg , 1007.1 hPa
Clouds: Overcast
Visibility: 10 miles , 16 km
Cloud details: Partly cloudy 16000 ft
Overcast 20000 ft
2017/11/18 22:56 KNTU 182256Z 20012KT 10SM SCT160 OVC200 16/09 A2974 RMK AO2 SLP072 T01610094
KCPK - Chesapeake, Virginia, USA
Distance from station: SSE 160mi, 258km
Updated: Sat, 18-Nov-2017 6:15pm EST
Clear
Clear
 Wind from S
Wind: S 10 mph , 17 km/h, Gust: 21 mph , 33 km/h
Temperature: 61°F , 16°C
Dew Point: 52°F , 11°C
Humidity: 72%
Barometer: 29.74 inHg , 1007.1 hPa
Clouds: Clear
Visibility: 10 miles , 16 km
2017/11/18 23:15 KCPK 182315Z AUTO 18009G18KT 10SM CLR 16/11 A2974 RMK AO2 T01640109
KNFE - Fentress Naval, Virginia, USA
Distance from station: SSE 162mi, 261km
Updated: Sat, 18-Nov-2017 5:56pm EST
Clear
Clear
 Wind from S
Wind: S 13 mph , 20 km/h, Gust: 20 mph , 31 km/h
Temperature: 64°F , 18°C
Dew Point: 52°F , 11°C
Humidity: 64%
Barometer: 29.75 inHg , 1007.5 hPa
Clouds: Clear
Visibility: 10 miles , 16 km
2017/11/18 22:56 KNFE 182256Z AUTO 19011G17KT 10SM CLR 18/11 A2975 RMK AO2 SLP076 T01780111
 
KROA - ROANOKE, VIRGINIA, USA
Distance from station: SW 173mi, 279km
Updated: Sat, 18-Nov-2017 5:54pm EST
Overcast
Overcast
 Wind from S
Wind: S 10 mph , 17 km/h
Temperature: 59°F , 15°C
Dew Point: 46°F , 8°C
Humidity: 63%
Barometer: 29.65 inHg , 1004.1 hPa
Clouds: Overcast
Visibility: 10 miles , 16 km
Cloud details: Partly cloudy 7000 ft
Overcast 24000 ft
2017/11/18 22:54 KROA 182254Z 17009KT 10SM SCT070 OVC240 15/08 A2965 RMK AO2 SLP040 T01500078
KDAN - DANVILLE, VIRGINIA, USA
Distance from station: SW 187mi, 302km
Updated: Sat, 18-Nov-2017 5:53pm EST
Mostly cloudy
Mostly cloudy
 Wind from SSW
Wind: SSW 8 mph , 13 km/h
Temperature: 63°F , 17°C
Dew Point: 46°F , 8°C
Humidity: 56%
Barometer: 29.70 inHg , 1005.8 hPa
Clouds: Mostly cloudy
Visibility: 10 miles , 16 km
Cloud details: Few Clouds 4800 ft
Mostly cloudy 6000 ft
2017/11/18 22:53 KDAN 182253Z AUTO 21007KT 170V240 10SM FEW048 BKN060 17/08 A2970 RMK AO2 SLP052 T01670083
KMTV - MARTINSVILLE, VIRGINIA, USA
Distance from station: SW 207mi, 333km
Updated: Sat, 18-Nov-2017 6:15pm EST
Overcast
Overcast
 Wind from SSW
Wind: SSW 9 mph , 15 km/h
Temperature: 59°F , 15°C
Dew Point: 46°F , 8°C
Humidity: 63%
Barometer: 29.70 inHg , 1005.8 hPa
Clouds: Overcast
Visibility: 10 miles , 16 km
Cloud details: Overcast 3700 ft
2017/11/18 23:15 KMTV 182315Z AUTO 21008KT 170V260 10SM OVC037 15/08 A2970 RMK AO2 T01530075
 
KPSK - DUBLIN/NEW RIV, VIRGINIA, USA
Distance from station: SW 212mi, 342km
Updated: Sat, 18-Nov-2017 6:15pm EST
Overcast
Overcast
 Wind from SSW
Wind: SSW 15 mph , 24 km/h, Gust: 24 mph , 39 km/h
Temperature: 57°F , 14°C
Dew Point: 46°F , 8°C
Humidity: 67%
Barometer: 29.64 inHg , 1003.7 hPa
Clouds: Overcast
Visibility: 10 miles , 16 km
Cloud details: Overcast 5000 ft
2017/11/18 23:15 KPSK 182315Z AUTO 20013G21KT 10SM OVC050 14/08 A2964 RMK AO2 T01400083
KHLX - HILLSVILLE/GALAX, VIRGINIA, USA
Distance from station: SW 233mi, 376km
Updated: Sat, 18-Nov-2017 6:15pm EST
Overcast
Overcast
 Wind from SSW
Wind: SSW 10 mph , 17 km/h, Gust: 25 mph , 41 km/h
Temperature: 52°F , 11°C
Dew Point: 46°F , 8°C
Humidity: 82%
Barometer: 29.66 inHg , 1004.4 hPa
Clouds: Overcast
Visibility: 10 miles , 16 km
Cloud details: Overcast 1600 ft
2017/11/18 23:15 KHLX 182315Z AUTO 20009G22KT 10SM OVC016 11/08 A2966 RMK AO2 T01100080
KMKJ - MARION / WYTHEVI, VIRGINIA, USA
Distance from station: SW 252mi, 405km
Updated: Sat, 18-Nov-2017 6:15pm EST
Overcast
Overcast
 Wind from S
Wind: S 9 mph , 15 km/h, Gust: 20 mph , 31 km/h
Temperature: 57°F , 14°C
Dew Point: 45°F , 7°C
Humidity: 63%
Barometer: 29.65 inHg , 1004.1 hPa
Clouds: Overcast
Visibility: 10 miles , 16 km
Cloud details: Mostly cloudy 4100 ft
Overcast 4900 ft
2017/11/18 23:15 KMKJ 182315Z AUTO 19008G17KT 140V210 10SM BKN041 OVC049 14/07 A2965 RMK AO2 T01370068
 
KJFZ - RICHLANDS, VIRGINIA, USA
Distance from station: SW 268mi, 431km
Updated: Sat, 18-Nov-2017 6:15pm EST
Overcast
Overcast
 Wind from S
Wind: S 14 mph , 22 km/h, Gust: 25 mph , 41 km/h
Temperature: 59°F , 15°C
Dew Point: 5°F , -15°C
Humidity: 11%
Barometer: 29.57 inHg , 1001.4 hPa
Clouds: Overcast
Visibility: 10 miles , 16 km
Cloud details: Overcast 3800 ft
2017/11/18 23:15 KJFZ 182315Z AUTO 19012G22KT 140V220 10SM OVC038 15/M15 A2957 RMK AO2 T01501148
KVJI - ABINGDON, VIRGINIA, USA
Distance from station: SW 292mi, 470km
Updated: Sat, 18-Nov-2017 6:15pm EST
Overcast
Overcast
 Wind from SW
Wind: SW 12 mph , 19 km/h, Gust: 17 mph , 28 km/h
Temperature: 63°F , 17°C
Dew Point: 48°F , 9°C
Humidity: 59%
Barometer: 29.60 inHg , 1002.4 hPa
Clouds: Overcast
Visibility: 10 miles , 16 km
Cloud details: Overcast 4600 ft
2017/11/18 23:15 KVJI 182315Z AUTO 23010G15KT 10SM OVC046 17/09 A2960 RMK AO2 T01740093
KLNP - WISE/LONESOME PI, VIRGINIA, USA
Distance from station: WSW 306mi, 492km
Updated: Sat, 18-Nov-2017 6:15pm EST
Overcast
Overcast
 Wind from S
Wind: S 21 mph , 33 km/h, Gust: 35 mph , 56 km/h
Temperature: 55°F , 13°C
Dew Point: 55°F , 13°C
Humidity: 100%
Barometer: 29.57 inHg , 1001.4 hPa
Clouds: Overcast
Visibility: 10 miles , 16 km
Cloud details: Partly cloudy 1300 ft
Overcast 3700 ft
2017/11/18 23:15 KLNP 182315Z AUTO 19018G30KT 10SM SCT013 OVC037 13/13 A2957 RMK AO2